Terminal Aerodrome Forecast
Issued by NWS

Home | Current Version | Previous Version | Text Only | Print | Product List | Glossary On
Versions: 1 2 3 4 5 6 7 8 9 10 11 12 13 14 15 16 17 18 19 20 21 22 23 24 25 26 27 28 29 30 31 32 33
000
FTUS41 KOKX 280724 AAA
TAFTEB
TAF AMD
KTEB 280724Z 2807/2906 VRB03KT 5SM BR OVC035
      TEMPO 2807/2808 3SM -RA BKN025
     FM280800 08004KT 4SM -RA OVC020
     FM281000 08004KT 1SM -RA BR OVC010
      TEMPO 2810/2814 2SM -RA BR OVC008
     FM281600 07004KT 1 1/2SM BR OVC008
     FM281900 06004KT 3SM -RA BR OVC010
     FM290000 03004KT 3SM -RA BR OVC008
     FM290400 36006KT 5SM BR OVC015=

USA.gov is the U.S. government's official web portal to all federal, state and local government web resources and services.